createdAt,value
2023-01-09T00:00:09.314Z,1.67
2023-01-09T00:02:40.640Z,1.60
2023-01-09T00:05:09.895Z,1.83
2023-01-09T00:07:38.729Z,1.90
2023-01-09T00:10:08.375Z,1.90
2023-01-09T00:12:38.370Z,1.80
2023-01-09T00:15:08.079Z,1.98
2023-01-09T00:17:36.454Z,1.73
2023-01-09T00:20:06.624Z,1.50
2023-01-09T00:22:35.061Z,1.92
2023-01-09T00:25:03.574Z,1.75
2023-01-09T00:27:32.743Z,1.50
2023-01-09T00:30:02.751Z,1.40
2023-01-09T00:32:31.127Z,1.10
2023-01-09T00:34:59.459Z,1.05
2023-01-09T00:37:27.921Z,0.90
2023-01-09T00:39:56.398Z,0.90
2023-01-09T00:42:28.554Z,0.90
2023-01-09T00:45:01.419Z,0.80
2023-01-09T00:47:34.290Z,0.77
2023-01-09T00:50:06.269Z,0.80
2023-01-09T00:52:37.883Z,0.60
2023-01-09T00:55:07.856Z,0.60
2023-01-09T00:57:36.432Z,0.70
2023-01-09T01:00:05.912Z,0.68
2023-01-09T01:02:35.767Z,0.80
2023-01-09T01:05:30.119Z,0.70
2023-01-09T01:07:58.499Z,0.70
2023-01-09T01:10:28.115Z,0.70
2023-01-09T01:12:56.596Z,0.70
2023-01-09T01:15:29.330Z,0.75
2023-01-09T01:17:59.212Z,0.70
2023-01-09T01:20:27.977Z,0.80
2023-01-09T01:22:56.449Z,0.70
2023-01-09T01:25:25.095Z,0.70
2023-01-09T01:27:53.753Z,0.80
2023-01-09T01:30:22.328Z,0.70
2023-01-09T01:32:50.742Z,0.70
2023-01-09T01:35:20.677Z,0.70
2023-01-09T01:37:49.782Z,0.70
2023-01-09T01:40:18.345Z,0.70
2023-01-09T01:42:48.391Z,0.70
2023-01-09T01:45:19.518Z,0.60
2023-01-09T01:47:53.222Z,0.70
2023-01-09T01:50:30.044Z,0.70
2023-01-09T01:53:07.555Z,0.60
2023-01-09T01:55:37.511Z,0.70
2023-01-09T01:58:08.789Z,0.73
2023-01-09T02:00:41.476Z,0.70
2023-01-09T02:03:10.711Z,0.60
2023-01-09T02:05:40.871Z,0.65
2023-01-09T02:08:09.560Z,0.60
2023-01-09T02:10:40.278Z,0.70
2023-01-09T02:13:10.370Z,0.60
2023-01-09T02:15:50.648Z,0.70
2023-01-09T02:18:43.093Z,0.60
2023-01-09T02:21:19.425Z,0.63
2023-01-09T02:24:26.178Z,0.60
2023-01-09T02:27:16.395Z,0.70
2023-01-09T02:30:31.025Z,0.70
2023-01-09T02:33:31.730Z,0.80
2023-01-09T02:36:23.720Z,0.80
2023-01-09T02:39:05.422Z,0.90
2023-01-09T02:41:39.552Z,0.80
2023-01-09T02:44:19.020Z,0.80
2023-01-09T02:46:49.477Z,0.70
2023-01-09T02:49:18.352Z,0.80
2023-01-09T02:51:52.898Z,0.80
2023-01-09T02:54:31.908Z,0.80
2023-01-09T02:57:22.982Z,0.80
2023-01-09T03:00:05.441Z,0.80
2023-01-09T03:02:49.471Z,0.90
2023-01-09T03:05:25.810Z,0.90
2023-01-09T03:08:00.635Z,1.20
2023-01-09T03:10:37.848Z,1.20
2023-01-09T03:13:08.517Z,1.23
2023-01-09T03:15:40.826Z,1.27
2023-01-09T03:18:13.410Z,1.40
2023-01-09T03:20:42.672Z,1.38
2023-01-09T03:23:11.081Z,1.50
2023-01-09T03:25:39.539Z,1.30
2023-01-09T03:28:09.721Z,1.60
2023-01-09T03:30:38.163Z,1.50
2023-01-09T03:33:06.582Z,1.40
2023-01-09T03:35:36.349Z,1.30
2023-01-09T03:38:06.604Z,1.30
2023-01-09T03:40:35.675Z,1.35
2023-01-09T03:43:04.109Z,1.48
2023-01-09T03:45:32.543Z,1.33
2023-01-09T03:48:00.932Z,1.45
2023-01-09T03:50:29.335Z,1.40
2023-01-09T03:52:59.118Z,1.30
2023-01-09T03:55:27.572Z,1.70
2023-01-09T03:57:55.920Z,1.40
2023-01-09T04:00:24.385Z,1.40
2023-01-09T04:02:52.806Z,1.50
2023-01-09T04:05:21.172Z,1.40
2023-01-09T04:07:49.551Z,1.40
2023-01-09T04:10:19.544Z,1.50
2023-01-09T04:12:47.913Z,1.40
2023-01-09T04:15:16.328Z,1.30
2023-01-09T04:17:44.708Z,1.38
2023-01-09T04:20:13.634Z,1.10
2023-01-09T04:22:42.092Z,1.40
2023-01-09T04:25:11.272Z,1.45
2023-01-09T04:27:41.009Z,1.23
2023-01-09T04:30:10.499Z,1.05
2023-01-09T04:32:38.874Z,1.20
2023-01-09T04:35:08.675Z,1.10
2023-01-09T04:37:37.467Z,1.30
2023-01-09T04:40:08.154Z,1.20
2023-01-09T04:42:36.613Z,1.10
2023-01-09T04:45:08.425Z,1.30
2023-01-09T04:47:37.029Z,1.38
2023-01-09T04:50:06.203Z,1.30
2023-01-09T04:52:34.758Z,1.02
2023-01-09T04:55:03.062Z,1.00
2023-01-09T04:57:31.395Z,1.10
2023-01-09T04:59:59.779Z,1.20
2023-01-09T05:02:29.566Z,1.10
2023-01-09T05:04:57.992Z,1.30
2023-01-09T05:07:26.364Z,1.00
2023-01-09T05:09:54.780Z,1.15
2023-01-09T05:12:23.190Z,1.23
2023-01-09T05:14:51.638Z,1.30
2023-01-09T05:17:20.084Z,1.10
2023-01-09T05:19:49.894Z,1.10
2023-01-09T05:22:18.330Z,1.35
2023-01-09T05:24:46.765Z,1.10
2023-01-09T05:27:15.200Z,1.10
2023-01-09T05:29:43.542Z,1.08
2023-01-09T05:32:12.011Z,1.20
2023-01-09T05:34:40.413Z,1.20
2023-01-09T05:37:10.103Z,1.27
2023-01-09T05:39:38.452Z,1.00
2023-01-09T05:42:06.832Z,1.02
2023-01-09T05:44:35.205Z,1.10
2023-01-09T05:47:03.636Z,1.10
2023-01-09T05:49:32.063Z,1.20
2023-01-09T05:52:00.404Z,1.10
2023-01-09T05:54:30.223Z,1.10
2023-01-09T05:56:58.649Z,1.17
2023-01-09T05:59:27.748Z,1.20
2023-01-09T06:01:56.140Z,1.10
2023-01-09T06:04:24.746Z,1.10
2023-01-09T06:06:53.100Z,1.00
2023-01-09T06:09:21.486Z,0.90
2023-01-09T06:11:51.447Z,1.20
2023-01-09T06:14:19.877Z,1.02
2023-01-09T06:16:48.233Z,1.10
2023-01-09T06:19:16.851Z,1.10
2023-01-09T06:21:45.261Z,1.00
2023-01-09T06:24:13.884Z,1.10
2023-01-09T06:26:42.362Z,1.00
2023-01-09T06:29:12.319Z,1.33
2023-01-09T06:31:40.702Z,1.10
2023-01-09T06:34:09.224Z,1.15
2023-01-09T06:36:37.566Z,1.08
2023-01-09T06:39:06.249Z,1.00
2023-01-09T06:41:34.626Z,0.90
2023-01-09T06:44:03.009Z,1.10
2023-01-09T06:46:32.877Z,1.20
2023-01-09T06:49:01.259Z,1.00
2023-01-09T06:51:29.622Z,1.00
2023-01-09T06:53:58.080Z,1.10
2023-01-09T06:56:26.455Z,0.90
2023-01-09T06:58:55.668Z,1.00
2023-01-09T07:01:24.121Z,1.00
2023-01-09T07:03:53.896Z,1.10
2023-01-09T07:06:22.309Z,1.10
2023-01-09T07:08:50.726Z,1.00
2023-01-09T07:11:19.177Z,0.90
2023-01-09T07:13:47.575Z,1.08
2023-01-09T07:16:16.752Z,1.02
2023-01-09T07:18:45.918Z,1.10
2023-01-09T07:21:15.689Z,1.15
2023-01-09T07:23:44.088Z,1.10
2023-01-09T07:26:12.459Z,1.00
2023-01-09T07:28:40.829Z,1.25
2023-01-09T07:31:09.785Z,1.10
2023-01-09T07:33:38.155Z,0.90
2023-01-09T07:36:07.197Z,1.08
2023-01-09T07:38:37.570Z,1.00
2023-01-09T07:41:06.413Z,1.10
2023-01-09T07:43:34.802Z,1.17
2023-01-09T07:46:03.187Z,1.00
2023-01-09T07:48:31.626Z,1.33
2023-01-09T07:51:00.126Z,1.08
2023-01-09T07:53:28.658Z,1.60
2023-01-09T07:55:58.359Z,1.00
2023-01-09T07:58:26.675Z,1.10
2023-01-09T08:00:55.091Z,0.95
2023-01-09T08:03:23.716Z,0.98
2023-01-09T08:05:52.095Z,1.20
2023-01-09T08:08:20.425Z,1.10
2023-01-09T08:10:48.742Z,1.00
2023-01-09T08:13:18.415Z,1.10
2023-01-09T08:15:46.817Z,1.10
2023-01-09T08:18:15.362Z,1.00
2023-01-09T08:20:43.915Z,1.00
2023-01-09T08:23:12.230Z,1.00
2023-01-09T08:25:40.540Z,1.20
2023-01-09T08:28:09.278Z,1.10
2023-01-09T08:30:39.509Z,1.10
2023-01-09T08:33:11.154Z,1.20
2023-01-09T08:35:42.394Z,1.30
2023-01-09T08:38:11.262Z,1.20
2023-01-09T08:40:39.729Z,1.25
2023-01-09T08:43:26.019Z,1.25
2023-01-09T08:46:13.451Z,1.27
2023-01-09T08:48:42.271Z,1.23
2023-01-09T08:51:17.843Z,1.42
2023-01-09T08:53:46.204Z,1.30
2023-01-09T08:56:14.486Z,1.40
2023-01-09T08:58:42.881Z,1.42
2023-01-09T09:01:12.634Z,1.20
2023-01-09T09:03:40.980Z,1.20
2023-01-09T09:06:09.364Z,1.60
2023-01-09T09:08:37.692Z,1.50
2023-01-09T09:11:06.220Z,1.40
2023-01-09T09:13:34.523Z,1.38
2023-01-09T09:16:02.924Z,1.40
2023-01-09T09:18:32.790Z,1.48
2023-01-09T09:21:01.163Z,1.52
2023-01-09T09:23:29.447Z,1.52
2023-01-09T09:25:58.003Z,1.35
2023-01-09T09:28:26.340Z,1.60
2023-01-09T09:33:42.444Z,1.50
2023-01-09T09:36:11.255Z,1.20
2023-01-09T09:38:39.771Z,1.30
2023-01-09T09:41:50.028Z,1.30
2023-01-09T09:44:54.563Z,1.33
2023-01-09T09:47:43.374Z,1.10
2023-01-09T09:50:24.174Z,1.30
2023-01-09T09:53:00.447Z,1.15
2023-01-09T09:55:33.067Z,1.48
2023-01-09T09:58:05.739Z,1.45
2023-01-09T10:00:34.819Z,1.45
2023-01-09T10:03:07.162Z,1.42
2023-01-09T10:05:41.698Z,1.33
2023-01-09T10:08:18.802Z,1.50
2023-01-09T10:10:53.483Z,1.25
2023-01-09T10:16:31.108Z,1.10
2023-01-09T10:19:10.140Z,1.33
2023-01-09T10:21:48.582Z,1.20
2023-01-09T10:24:40.946Z,1.23
2023-01-09T10:27:18.861Z,1.20
2023-01-09T10:30:05.757Z,1.27
2023-01-09T10:33:01.282Z,1.20
2023-01-09T10:35:56.748Z,1.20
2023-01-09T10:41:06.136Z,1.20
2023-01-09T10:46:12.986Z,1.20
2023-01-09T10:48:46.024Z,1.17
2023-01-09T10:51:20.066Z,1.30
2023-01-09T10:53:55.053Z,1.02
2023-01-09T10:56:26.801Z,1.10
2023-01-09T10:58:56.831Z,1.38
2023-01-09T11:01:28.459Z,1.10
2023-01-09T11:03:59.241Z,0.90
2023-01-09T11:06:37.523Z,1.20
2023-01-09T11:09:07.749Z,1.17
2023-01-09T11:11:38.221Z,1.40
2023-01-09T11:14:14.481Z,1.17
2023-01-09T11:16:52.898Z,1.30
2023-01-09T11:19:22.324Z,1.10
2023-01-09T11:21:51.048Z,1.40
2023-01-09T11:24:32.657Z,1.20
2023-01-09T11:27:25.130Z,1.30
2023-01-09T11:30:14.646Z,1.27
2023-01-09T11:32:43.706Z,1.70
2023-01-09T11:35:23.732Z,1.38
2023-01-09T11:38:02.321Z,1.35
2023-01-09T11:40:45.919Z,1.13
2023-01-09T11:43:19.324Z,1.40
2023-01-09T11:46:00.988Z,1.15
2023-01-09T11:48:41.407Z,1.30
2023-01-09T11:51:28.364Z,1.38
2023-01-09T11:54:08.259Z,1.20
2023-01-09T11:56:38.936Z,1.15
2023-01-09T11:59:12.846Z,1.38
2023-01-09T12:02:08.149Z,1.05
2023-01-09T12:07:47.985Z,1.25
2023-01-09T12:10:31.299Z,1.20
2023-01-09T12:13:10.758Z,1.30
2023-01-09T12:15:50.065Z,1.70
2023-01-09T12:18:30.206Z,1.00
2023-01-09T12:21:18.407Z,1.20
2023-01-09T12:24:05.079Z,1.20
2023-01-09T12:26:35.005Z,1.45
2023-01-09T12:29:28.535Z,1.20
2023-01-09T12:32:10.892Z,1.17
2023-01-09T12:35:03.239Z,1.30
2023-01-09T12:37:57.299Z,1.33
2023-01-09T12:40:39.023Z,1.20
2023-01-09T12:43:15.183Z,1.40
2023-01-09T12:45:57.961Z,1.33
2023-01-09T12:48:50.308Z,1.23
2023-01-09T12:51:28.131Z,1.10
2023-01-09T12:54:05.528Z,1.42
2023-01-09T12:56:38.376Z,1.00
2023-01-09T12:59:22.584Z,1.60
2023-01-09T13:01:53.402Z,1.38
2023-01-09T13:04:28.106Z,1.40
2023-01-09T13:09:33.388Z,1.40
2023-01-09T13:12:12.165Z,1.38
2023-01-09T13:14:48.610Z,1.40
2023-01-09T13:17:24.593Z,1.58
2023-01-09T13:19:54.020Z,1.60
2023-01-09T13:22:26.607Z,1.52
2023-01-09T13:25:14.839Z,1.30
2023-01-09T13:27:50.453Z,1.40
2023-01-09T13:30:29.147Z,1.45
2023-01-09T13:33:13.185Z,1.45
2023-01-09T13:35:49.781Z,1.43
2023-01-09T13:38:21.844Z,1.60
2023-01-09T13:41:25.615Z,1.60
2023-01-09T13:44:06.231Z,1.70
2023-01-09T13:46:44.673Z,1.50
2023-01-09T13:49:33.609Z,1.60
2023-01-09T13:52:04.198Z,1.55
2023-01-09T13:55:23.693Z,1.40
2023-01-09T13:58:25.723Z,1.50
2023-01-09T14:00:56.985Z,1.48
2023-01-09T14:03:31.298Z,1.52
2023-01-09T14:06:28.081Z,1.40
2023-01-09T14:09:21.982Z,1.50
2023-01-09T14:12:03.219Z,1.67
2023-01-09T14:14:34.182Z,1.30
2023-01-09T14:17:03.723Z,1.60
2023-01-09T14:19:47.947Z,1.70
2023-01-09T14:22:29.310Z,1.70
2023-01-09T14:25:03.379Z,1.50
2023-01-09T14:28:20.283Z,1.50
2023-01-09T14:31:11.998Z,2.08
2023-01-09T14:33:41.941Z,2.38
2023-01-09T14:36:15.573Z,1.90
2023-01-09T14:38:48.795Z,1.98
2023-01-09T14:41:47.940Z,1.90
2023-01-09T14:44:29.839Z,1.90
2023-01-09T14:47:12.389Z,1.73
2023-01-09T14:49:44.777Z,1.70
2023-01-09T14:52:24.343Z,1.90
2023-01-09T14:54:59.091Z,1.70
2023-01-09T14:57:29.290Z,2.50
2023-01-09T15:00:01.586Z,2.20
2023-01-09T15:02:34.182Z,2.10
2023-01-09T15:05:09.329Z,2.00
2023-01-09T15:07:44.363Z,2.00
2023-01-09T15:10:20.553Z,1.80
2023-01-09T15:12:52.566Z,1.70
2023-01-09T15:15:23.095Z,1.70
2023-01-09T15:17:56.326Z,1.67
2023-01-09T15:20:28.765Z,1.77
2023-01-09T15:22:58.244Z,1.88
2023-01-09T15:25:38.536Z,1.70
2023-01-09T15:28:27.037Z,1.67
2023-01-09T15:31:07.772Z,1.90
2023-01-09T15:33:39.639Z,1.80
2023-01-09T15:36:14.934Z,1.90
2023-01-09T15:38:45.004Z,2.00
2023-01-09T15:41:31.613Z,2.30
2023-01-09T15:44:00.129Z,1.90
2023-01-09T15:46:28.725Z,1.70
2023-01-09T15:48:59.223Z,2.10
2023-01-09T15:51:31.387Z,1.85
2023-01-09T15:54:01.197Z,2.03
2023-01-09T15:56:33.285Z,2.20
2023-01-09T15:59:02.569Z,1.80
2023-01-09T16:01:32.013Z,2.17
2023-01-09T16:04:07.146Z,1.98
2023-01-09T16:06:38.109Z,2.20
2023-01-09T16:09:17.135Z,1.83
2023-01-09T16:11:52.081Z,2.33
2023-01-09T16:14:27.412Z,1.85
2023-01-09T16:17:00.877Z,2.20
2023-01-09T16:19:32.112Z,2.00
2023-01-09T16:22:02.372Z,2.17
2023-01-09T16:24:40.588Z,2.17
2023-01-09T16:27:34.493Z,2.15
2023-01-09T16:30:05.277Z,2.30
2023-01-09T16:32:38.555Z,1.85
2023-01-09T16:35:17.790Z,1.98
2023-01-09T16:37:46.374Z,2.38
2023-01-09T16:40:32.178Z,2.78
2023-01-09T16:43:03.751Z,2.33
2023-01-09T16:45:40.443Z,2.97
2023-01-09T16:48:14.555Z,2.90
2023-01-09T16:50:44.055Z,2.20
2023-01-09T16:53:22.990Z,2.60
2023-01-09T16:55:56.439Z,2.40
2023-01-09T16:58:32.522Z,2.40
2023-01-09T17:01:00.963Z,2.38
2023-01-09T17:03:31.944Z,3.33
2023-01-09T17:06:03.617Z,2.95
2023-01-09T17:08:33.939Z,2.92
2023-01-09T17:11:04.029Z,2.70
2023-01-09T17:13:36.901Z,2.67
2023-01-09T17:16:05.982Z,2.83
2023-01-09T17:18:34.645Z,4.70
2023-01-09T17:21:03.013Z,3.95
2023-01-09T17:23:33.249Z,3.30
2023-01-09T17:26:19.419Z,3.60
2023-01-09T17:28:51.624Z,3.28
2023-01-09T17:31:20.478Z,3.80
2023-01-09T17:33:49.305Z,3.00
2023-01-09T17:36:29.945Z,2.60
2023-01-09T17:38:59.083Z,2.47
2023-01-09T17:41:29.862Z,3.67
2023-01-09T17:44:00.712Z,3.60
2023-01-09T17:46:31.572Z,3.05
2023-01-09T17:49:00.603Z,3.08
2023-01-09T17:51:34.457Z,3.00
2023-01-09T17:54:02.900Z,3.35
2023-01-09T17:56:35.459Z,3.00
2023-01-09T17:59:08.133Z,3.28
2023-01-09T18:01:36.728Z,3.55
2023-01-09T18:04:08.261Z,3.33
2023-01-09T18:06:39.395Z,3.33
2023-01-09T18:09:10.941Z,3.30
2023-01-09T18:11:41.538Z,3.95
2023-01-09T18:14:13.934Z,4.00
2023-01-09T18:16:44.143Z,4.03
2023-01-09T18:19:15.501Z,3.50
2023-01-09T18:21:43.917Z,3.25
2023-01-09T18:24:14.861Z,3.42
2023-01-09T18:26:43.407Z,4.10
2023-01-09T18:29:15.921Z,3.03
2023-01-09T18:31:44.375Z,3.33
2023-01-09T18:34:12.981Z,3.00
2023-01-09T18:36:43.930Z,3.00
2023-01-09T18:39:13.241Z,2.60
2023-01-09T18:41:41.689Z,2.80
2023-01-09T18:44:10.278Z,2.72
2023-01-09T18:46:42.115Z,3.15
2023-01-09T18:49:11.008Z,3.00
2023-01-09T18:51:39.456Z,3.53
2023-01-09T18:54:08.567Z,3.47
2023-01-09T18:56:37.376Z,3.60
2023-01-09T18:59:06.597Z,3.13
2023-01-09T19:01:42.141Z,2.97
2023-01-09T19:04:10.694Z,3.92
2023-01-09T19:06:39.254Z,3.92
2023-01-09T19:09:07.788Z,3.88
2023-01-09T19:11:36.399Z,3.90
2023-01-09T19:14:04.818Z,4.97
2023-01-09T19:16:33.603Z,4.22
2023-01-09T19:19:06.588Z,4.35
2023-01-09T19:21:35.742Z,4.07
2023-01-09T19:24:04.341Z,6.13
2023-01-09T19:26:32.899Z,5.60
2023-01-09T19:29:01.517Z,5.80
2023-01-09T19:31:30.186Z,5.53
2023-01-09T19:33:59.255Z,5.47
2023-01-09T19:36:32.595Z,4.25
2023-01-09T19:39:02.771Z,5.15
2023-01-09T19:41:31.533Z,4.45
2023-01-09T19:44:00.780Z,3.75
2023-01-09T19:46:30.708Z,3.80
2023-01-09T19:49:01.571Z,3.35
2023-01-09T19:51:32.653Z,4.22
2023-01-09T19:56:30.770Z,3.65
2023-01-09T19:59:00.873Z,4.13
2023-01-09T20:01:30.972Z,4.32
2023-01-09T20:04:04.987Z,4.40
2023-01-09T20:06:38.205Z,3.75
2023-01-09T20:09:07.701Z,3.50
2023-01-09T20:11:36.174Z,4.20
2023-01-09T20:14:04.574Z,4.28
2023-01-09T20:16:33.096Z,4.10
2023-01-09T20:19:03.910Z,3.90
2023-01-09T20:21:32.423Z,3.38
2023-01-09T20:24:05.194Z,3.75
2023-01-09T20:26:34.752Z,3.75
2023-01-09T20:29:03.321Z,4.57
2023-01-09T20:31:33.027Z,5.13
2023-01-09T20:34:03.475Z,5.38
2023-01-09T20:36:32.724Z,5.68
2023-01-09T20:39:04.185Z,4.80
2023-01-09T20:41:32.801Z,4.60
2023-01-09T20:44:03.185Z,5.35
2023-01-09T20:46:34.968Z,5.93
2023-01-09T20:49:06.456Z,5.65
2023-01-09T20:51:35.555Z,5.32
2023-01-09T20:54:05.591Z,5.53
2023-01-09T20:56:36.108Z,5.30
2023-01-09T20:59:06.316Z,5.07
2023-01-09T21:01:35.214Z,5.18
2023-01-09T21:04:03.813Z,4.60
2023-01-09T21:06:32.286Z,4.97
2023-01-09T21:09:02.878Z,5.10
2023-01-09T21:11:35.325Z,4.47
2023-01-09T21:14:03.958Z,4.85
2023-01-09T21:16:32.416Z,5.15
2023-01-09T21:19:00.893Z,5.40
2023-01-09T21:21:30.047Z,4.80
2023-01-09T21:24:01.593Z,4.20
2023-01-09T21:26:31.628Z,4.18
2023-01-09T21:29:08.160Z,5.00
2023-01-09T21:31:36.683Z,4.10
2023-01-09T21:34:07.961Z,3.80
2023-01-09T21:36:37.124Z,4.75
2023-01-09T21:39:08.878Z,3.75
2023-01-09T21:41:54.863Z,4.03
2023-01-09T21:44:47.489Z,3.90
2023-01-09T21:47:16.058Z,3.55
2023-01-09T21:49:45.360Z,3.50
2023-01-09T21:52:14.795Z,3.20
2023-01-09T21:54:43.419Z,3.50
2023-01-09T21:57:14.923Z,3.20
2023-01-09T21:59:44.895Z,2.92
2023-01-09T22:02:14.024Z,2.65
2023-01-09T22:04:43.126Z,3.13
2023-01-09T22:07:11.720Z,3.00
2023-01-09T22:09:40.172Z,2.72
2023-01-09T22:12:10.399Z,2.72
2023-01-09T22:14:39.625Z,2.50
2023-01-09T22:17:09.544Z,2.95
2023-01-09T22:19:38.113Z,2.50
2023-01-09T22:22:08.496Z,2.85
2023-01-09T22:24:36.994Z,2.78
2023-01-09T22:27:05.405Z,3.03
2023-01-09T22:29:34.151Z,3.60
2023-01-09T22:32:02.717Z,2.60
2023-01-09T22:34:32.540Z,3.55
2023-01-09T22:37:01.047Z,2.78
2023-01-09T22:39:29.580Z,2.58
2023-01-09T22:41:59.089Z,2.80
2023-01-09T22:44:27.595Z,3.17
2023-01-09T22:46:57.338Z,4.65
2023-01-09T22:49:28.218Z,4.40
2023-01-09T22:52:00.131Z,4.43
2023-01-09T22:54:28.592Z,3.95
2023-01-09T22:56:56.990Z,3.55
2023-01-09T22:59:25.381Z,3.28
2023-01-09T23:01:55.866Z,4.13
2023-01-09T23:04:24.389Z,3.78
2023-01-09T23:06:52.925Z,4.18
2023-01-09T23:09:22.785Z,3.47
2023-01-09T23:12:03.640Z,3.80
2023-01-09T23:14:34.254Z,3.55
2023-01-09T23:17:05.809Z,3.92
2023-01-09T23:19:34.601Z,4.75
2023-01-09T23:22:04.415Z,4.45
2023-01-09T23:24:34.363Z,4.22
2023-01-09T23:27:03.004Z,3.78
2023-01-09T23:29:31.704Z,4.00
2023-01-09T23:32:00.144Z,3.50
2023-01-09T23:34:28.663Z,3.42
2023-01-09T23:36:57.612Z,3.67
2023-01-09T23:39:26.205Z,3.40
2023-01-09T23:42:13.261Z,3.67
2023-01-09T23:44:41.750Z,4.30
2023-01-09T23:47:10.256Z,3.47
2023-01-09T23:49:39.718Z,3.17
2023-01-09T23:52:08.759Z,3.10
2023-01-09T23:54:38.581Z,3.53
2023-01-09T23:57:08.638Z,3.35
2023-01-09T23:59:37.069Z,3.08
